sensor_id;sensor_type;location;lat;lon;timestamp;temperature;humidity
44731;DHT22;30458;47.448;19.032;2023-07-29T00:08:33;23.30;98.20
44731;DHT22;30458;47.448;19.032;2023-07-29T00:18:36;23.00;98.80
44731;DHT22;30458;47.448;19.032;2023-07-29T00:28:37;22.90;99.20
44731;DHT22;30458;47.448;19.032;2023-07-29T00:38:37;22.90;99.20
44731;DHT22;30458;47.448;19.032;2023-07-29T00:48:40;22.80;99.60
44731;DHT22;30458;47.448;19.032;2023-07-29T00:58:42;22.60;99.90
44731;DHT22;30458;47.448;19.032;2023-07-29T01:08:55;22.70;99.70
44731;DHT22;30458;47.448;19.032;2023-07-29T01:19:01;22.40;99.90
44731;DHT22;30458;47.448;19.032;2023-07-29T01:29:10;22.30;99.90
44731;DHT22;30458;47.448;19.032;2023-07-29T01:39:13;22.30;99.90
44731;DHT22;30458;47.448;19.032;2023-07-29T01:49:17;22.20;99.90
44731;DHT22;30458;47.448;19.032;2023-07-29T01:59:21;21.90;99.90
44731;DHT22;30458;47.448;19.032;2023-07-29T02:09:24;21.70;99.90
44731;DHT22;30458;47.448;19.032;2023-07-29T02:19:30;21.70;99.90
44731;DHT22;30458;47.448;19.032;2023-07-29T02:29:33;21.70;99.90
44731;DHT22;30458;47.448;19.032;2023-07-29T02:39:34;21.60;99.90
44731;DHT22;30458;47.448;19.032;2023-07-29T02:49:35;21.30;99.90
44731;DHT22;30458;47.448;19.032;2023-07-29T02:59:38;21.00;99.90
44731;DHT22;30458;47.448;19.032;2023-07-29T03:09:44;20.80;99.90
44731;DHT22;30458;47.448;19.032;2023-07-29T03:19:45;20.70;99.90
44731;DHT22;30458;47.448;19.032;2023-07-29T03:29:48;20.80;99.90
44731;DHT22;30458;47.448;19.032;2023-07-29T03:39:52;21.00;99.90
44731;DHT22;30458;47.448;19.032;2023-07-29T03:49:58;21.20;99.90
44731;DHT22;30458;47.448;19.032;2023-07-29T03:59:59;21.50;99.90
44731;DHT22;30458;47.448;19.032;2023-07-29T04:10:00;21.60;99.90
44731;DHT22;30458;47.448;19.032;2023-07-29T04:20:01;21.90;99.90
44731;DHT22;30458;47.448;19.032;2023-07-29T04:30:08;22.70;99.30
44731;DHT22;30458;47.448;19.032;2023-07-29T04:40:09;22.50;99.50
44731;DHT22;30458;47.448;19.032;2023-07-29T04:50:12;23.60;98.70
44731;DHT22;30458;47.448;19.032;2023-07-29T05:00:13;24.00;97.40
44731;DHT22;30458;47.448;19.032;2023-07-29T05:10:19;25.90;95.80
44731;DHT22;30458;47.448;19.032;2023-07-29T05:20:21;28.20;93.30
44731;DHT22;30458;47.448;19.032;2023-07-29T05:30:21;27.90;92.80
44731;DHT22;30458;47.448;19.032;2023-07-29T05:40:22;25.80;94.80
44731;DHT22;30458;47.448;19.032;2023-07-29T05:50:23;26.80;94.40
44731;DHT22;30458;47.448;19.032;2023-07-29T06:00:27;27.10;94.40
44731;DHT22;30458;47.448;19.032;2023-07-29T06:10:36;26.80;94.70
44731;DHT22;30458;47.448;19.032;2023-07-29T06:20:39;26.40;95.40
44731;DHT22;30458;47.448;19.032;2023-07-29T06:30:40;26.70;95.00
44731;DHT22;30458;47.448;19.032;2023-07-29T06:40:44;27.10;94.40
44731;DHT22;30458;47.448;19.032;2023-07-29T06:50:44;28.90;92.80
44731;DHT22;30458;47.448;19.032;2023-07-29T07:00:48;30.30;91.40
44731;DHT22;30458;47.448;19.032;2023-07-29T07:10:53;31.60;90.10
44731;DHT22;30458;47.448;19.032;2023-07-29T07:20:54;32.30;88.60
44731;DHT22;30458;47.448;19.032;2023-07-29T07:30:59;32.10;87.00
44731;DHT22;30458;47.448;19.032;2023-07-29T07:41:05;32.90;85.80
44731;DHT22;30458;47.448;19.032;2023-07-29T07:51:13;32.30;85.80
44731;DHT22;30458;47.448;19.032;2023-07-29T08:01:14;32.30;86.30
44731;DHT22;30458;47.448;19.032;2023-07-29T08:11:20;32.30;84.90
44731;DHT22;30458;47.448;19.032;2023-07-29T08:21:23;32.40;85.80
44731;DHT22;30458;47.448;19.032;2023-07-29T08:31:23;32.50;85.00
44731;DHT22;30458;47.448;19.032;2023-07-29T08:41:49;32.00;83.30
44731;DHT22;30458;47.448;19.032;2023-07-29T08:51:53;32.00;83.20
44731;DHT22;30458;47.448;19.032;2023-07-29T09:01:54;31.40;82.60
44731;DHT22;30458;47.448;19.032;2023-07-29T09:11:58;31.00;82.80
44731;DHT22;30458;47.448;19.032;2023-07-29T09:21:59;30.70;84.10
44731;DHT22;30458;47.448;19.032;2023-07-29T09:32:18;30.60;83.40
44731;DHT22;30458;47.448;19.032;2023-07-29T09:42:23;30.50;83.60
44731;DHT22;30458;47.448;19.032;2023-07-29T09:52:24;30.20;83.90
44731;DHT22;30458;47.448;19.032;2023-07-29T10:02:28;30.20;84.80
44731;DHT22;30458;47.448;19.032;2023-07-29T10:12:34;30.40;82.40
44731;DHT22;30458;47.448;19.032;2023-07-29T10:22:39;30.30;82.20
44731;DHT22;30458;47.448;19.032;2023-07-29T10:32:44;30.10;80.90
44731;DHT22;30458;47.448;19.032;2023-07-29T10:43:11;30.10;80.80
44731;DHT22;30458;47.448;19.032;2023-07-29T10:53:12;30.40;81.30
44731;DHT22;30458;47.448;19.032;2023-07-29T11:03:15;30.60;81.40
44731;DHT22;30458;47.448;19.032;2023-07-29T11:13:19;30.70;80.80
44731;DHT22;30458;47.448;19.032;2023-07-29T11:23:19;30.70;82.90
44731;DHT22;30458;47.448;19.032;2023-07-29T11:33:22;30.90;81.00
44731;DHT22;30458;47.448;19.032;2023-07-29T11:43:23;30.90;82.50
44731;DHT22;30458;47.448;19.032;2023-07-29T11:53:30;30.70;81.10
44731;DHT22;30458;47.448;19.032;2023-07-29T12:03:36;30.40;82.00
44731;DHT22;30458;47.448;19.032;2023-07-29T12:13:41;30.10;83.10
44731;DHT22;30458;47.448;19.032;2023-07-29T12:23:43;30.30;83.50
44731;DHT22;30458;47.448;19.032;2023-07-29T12:33:43;30.60;82.20
44731;DHT22;30458;47.448;19.032;2023-07-29T12:43:45;30.60;82.20
44731;DHT22;30458;47.448;19.032;2023-07-29T12:53:48;30.40;79.40
44731;DHT22;30458;47.448;19.032;2023-07-29T13:03:49;30.30;81.20
44731;DHT22;30458;47.448;19.032;2023-07-29T13:13:52;30.20;82.30
44731;DHT22;30458;47.448;19.032;2023-07-29T13:23:52;30.30;80.70
44731;DHT22;30458;47.448;19.032;2023-07-29T13:33:57;30.30;80.60
44731;DHT22;30458;47.448;19.032;2023-07-29T13:44:04;30.30;79.60
44731;DHT22;30458;47.448;19.032;2023-07-29T13:54:07;30.30;80.00
44731;DHT22;30458;47.448;19.032;2023-07-29T14:04:10;30.20;80.90
44731;DHT22;30458;47.448;19.032;2023-07-29T14:14:13;30.20;81.10
44731;DHT22;30458;47.448;19.032;2023-07-29T14:24:14;30.40;80.10
44731;DHT22;30458;47.448;19.032;2023-07-29T14:34:15;30.50;78.70
44731;DHT22;30458;47.448;19.032;2023-07-29T14:44:18;30.20;79.90
44731;DHT22;30458;47.448;19.032;2023-07-29T14:54:22;30.20;80.70
44731;DHT22;30458;47.448;19.032;2023-07-29T15:04:25;30.30;81.00
44731;DHT22;30458;47.448;19.032;2023-07-29T15:14:28;30.20;81.50
44731;DHT22;30458;47.448;19.032;2023-07-29T15:24:28;30.30;82.10
44731;DHT22;30458;47.448;19.032;2023-07-29T15:34:29;30.60;81.90
44731;DHT22;30458;47.448;19.032;2023-07-29T15:44:32;30.80;82.40
44731;DHT22;30458;47.448;19.032;2023-07-29T15:54:35;30.30;82.30
44731;DHT22;30458;47.448;19.032;2023-07-29T16:04:36;30.00;83.60
44731;DHT22;30458;47.448;19.032;2023-07-29T16:14:36;29.80;84.10
44731;DHT22;30458;47.448;19.032;2023-07-29T16:24:37;29.80;83.70
44731;DHT22;30458;47.448;19.032;2023-07-29T16:34:41;29.70;83.20
44731;DHT22;30458;47.448;19.032;2023-07-29T16:44:42;29.60;83.70
44731;DHT22;30458;47.448;19.032;2023-07-29T16:54:43;29.40;83.70
44731;DHT22;30458;47.448;19.032;2023-07-29T17:04:43;29.30;84.70
44731;DHT22;30458;47.448;19.032;2023-07-29T17:14:46;29.10;85.60
44731;DHT22;30458;47.448;19.032;2023-07-29T17:24:48;28.70;87.10
44731;DHT22;30458;47.448;19.032;2023-07-29T17:34:48;28.30;87.50
44731;DHT22;30458;47.448;19.032;2023-07-29T17:44:49;27.80;89.40
44731;DHT22;30458;47.448;19.032;2023-07-29T17:54:52;27.20;91.90
44731;DHT22;30458;47.448;19.032;2023-07-29T18:04:54;26.40;94.10
44731;DHT22;30458;47.448;19.032;2023-07-29T18:14:57;26.00;95.50
44731;DHT22;30458;47.448;19.032;2023-07-29T18:25:01;26.20;95.50
44731;DHT22;30458;47.448;19.032;2023-07-29T18:35:04;26.10;96.00
44731;DHT22;30458;47.448;19.032;2023-07-29T18:45:06;26.10;96.10
44731;DHT22;30458;47.448;19.032;2023-07-29T18:55:07;25.90;96.80
44731;DHT22;30458;47.448;19.032;2023-07-29T19:05:10;25.90;96.90
44731;DHT22;30458;47.448;19.032;2023-07-29T19:15:14;26.00;97.00
44731;DHT22;30458;47.448;19.032;2023-07-29T19:25:15;26.00;97.10
44731;DHT22;30458;47.448;19.032;2023-07-29T19:35:15;25.70;97.30
44731;DHT22;30458;47.448;19.032;2023-07-29T19:45:16;25.50;97.50
44731;DHT22;30458;47.448;19.032;2023-07-29T19:55:17;25.20;98.30
44731;DHT22;30458;47.448;19.032;2023-07-29T20:05:20;25.20;97.90
44731;DHT22;30458;47.448;19.032;2023-07-29T20:15:21;24.90;98.20
44731;DHT22;30458;47.448;19.032;2023-07-29T20:25:22;25.00;97.90
44731;DHT22;30458;47.448;19.032;2023-07-29T20:35:23;24.90;97.80
44731;DHT22;30458;47.448;19.032;2023-07-29T20:45:24;24.90;97.60
44731;DHT22;30458;47.448;19.032;2023-07-29T20:55:24;24.80;97.80
44731;DHT22;30458;47.448;19.032;2023-07-29T21:05:27;24.70;97.20
44731;DHT22;30458;47.448;19.032;2023-07-29T21:15:30;24.70;97.00
44731;DHT22;30458;47.448;19.032;2023-07-29T21:25:32;24.70;96.90
44731;DHT22;30458;47.448;19.032;2023-07-29T21:35:33;24.50;96.30
44731;DHT22;30458;47.448;19.032;2023-07-29T21:45:36;24.40;96.80
44731;DHT22;30458;47.448;19.032;2023-07-29T21:55:41;24.40;96.20
44731;DHT22;30458;47.448;19.032;2023-07-29T22:05:41;24.30;96.30
44731;DHT22;30458;47.448;19.032;2023-07-29T22:15:42;24.30;97.00
44731;DHT22;30458;47.448;19.032;2023-07-29T22:25:54;24.20;97.30
44731;DHT22;30458;47.448;19.032;2023-07-29T22:35:55;24.30;97.50
44731;DHT22;30458;47.448;19.032;2023-07-29T22:45:59;24.20;97.70
44731;DHT22;30458;47.448;19.032;2023-07-29T22:56:00;24.10;98.10
44731;DHT22;30458;47.448;19.032;2023-07-29T23:06:06;24.10;98.40
44731;DHT22;30458;47.448;19.032;2023-07-29T23:16:07;24.10;98.50
44731;DHT22;30458;47.448;19.032;2023-07-29T23:26:10;24.00;98.80
44731;DHT22;30458;47.448;19.032;2023-07-29T23:36:12;23.90;98.30
44731;DHT22;30458;47.448;19.032;2023-07-29T23:46:14;23.90;98.10
44731;DHT22;30458;47.448;19.032;2023-07-29T23:56:14;23.90;98.50
